sensor_id;sensor_type;location;lat;lon;timestamp;pressure;altitude;pressure_sealevel;temperature
79495;BMP180;68951;53.130;18.104;2024-02-26T00:00:02;100053.40;;;
79495;BMP180;68951;53.130;18.104;2024-02-26T00:02:30;100054.00;;;
79495;BMP180;68951;53.130;18.104;2024-02-26T00:04:57;100054.40;;;
79495;BMP180;68951;53.130;18.104;2024-02-26T00:07:24;100051.60;;;
79495;BMP180;68951;53.130;18.104;2024-02-26T00:09:51;100047.40;;;
79495;BMP180;68951;53.130;18.104;2024-02-26T00:12:18;100056.00;;;
79495;BMP180;68951;53.130;18.104;2024-02-26T00:14:44;100057.80;;;
79495;BMP180;68951;53.130;18.104;2024-02-26T00:17:13;100054.00;;;
79495;BMP180;68951;53.130;18.104;2024-02-26T00:19:40;100060.20;;;
79495;BMP180;68951;53.130;18.104;2024-02-26T00:22:07;100056.00;;;
79495;BMP180;68951;53.130;18.104;2024-02-26T00:24:34;100053.80;;;
79495;BMP180;68951;53.130;18.104;2024-02-26T00:27:00;100055.80;;;
79495;BMP180;68951;53.130;18.104;2024-02-26T00:29:27;100054.20;;;
79495;BMP180;68951;53.130;18.104;2024-02-26T00:31:54;100052.20;;;
79495;BMP180;68951;53.130;18.104;2024-02-26T00:34:21;100048.20;;;
79495;BMP180;68951;53.130;18.104;2024-02-26T00:36:47;100042.00;;;
79495;BMP180;68951;53.130;18.104;2024-02-26T00:39:14;100038.80;;;
79495;BMP180;68951;53.130;18.104;2024-02-26T00:41:41;100037.60;;;
79495;BMP180;68951;53.130;18.104;2024-02-26T00:44:08;100036.80;;;
79495;BMP180;68951;53.130;18.104;2024-02-26T00:46:35;100041.80;;;
79495;BMP180;68951;53.130;18.104;2024-02-26T00:49:01;100043.20;;;
79495;BMP180;68951;53.130;18.104;2024-02-26T00:51:29;100040.60;;;
79495;BMP180;68951;53.130;18.104;2024-02-26T00:53:56;100044.80;;;
79495;BMP180;68951;53.130;18.104;2024-02-26T00:56:22;100040.80;;;
79495;BMP180;68951;53.130;18.104;2024-02-26T00:58:49;100044.60;;;
79495;BMP180;68951;53.130;18.104;2024-02-26T01:01:16;100040.00;;;
79495;BMP180;68951;53.130;18.104;2024-02-26T01:03:43;100037.00;;;
79495;BMP180;68951;53.130;18.104;2024-02-26T01:06:10;100033.80;;;
79495;BMP180;68951;53.130;18.104;2024-02-26T01:08:37;100037.00;;;
79495;BMP180;68951;53.130;18.104;2024-02-26T01:11:04;100035.20;;;
79495;BMP180;68951;53.130;18.104;2024-02-26T01:13:31;100033.20;;;
79495;BMP180;68951;53.130;18.104;2024-02-26T01:15:58;100032.60;;;
79495;BMP180;68951;53.130;18.104;2024-02-26T01:18:24;100039.80;;;
79495;BMP180;68951;53.130;18.104;2024-02-26T01:20:51;100041.80;;;
79495;BMP180;68951;53.130;18.104;2024-02-26T01:23:21;100045.00;;;
79495;BMP180;68951;53.130;18.104;2024-02-26T01:25:47;100045.40;;;
79495;BMP180;68951;53.130;18.104;2024-02-26T01:28:16;100048.80;;;
79495;BMP180;68951;53.130;18.104;2024-02-26T01:30:43;100050.00;;;
79495;BMP180;68951;53.130;18.104;2024-02-26T01:33:09;100053.00;;;
79495;BMP180;68951;53.130;18.104;2024-02-26T01:35:36;100049.60;;;
79495;BMP180;68951;53.130;18.104;2024-02-26T01:38:03;100050.20;;;
79495;BMP180;68951;53.130;18.104;2024-02-26T01:40:30;100046.20;;;
79495;BMP180;68951;53.130;18.104;2024-02-26T01:42:57;100043.00;;;
79495;BMP180;68951;53.130;18.104;2024-02-26T01:45:24;100048.80;;;
79495;BMP180;68951;53.130;18.104;2024-02-26T01:47:52;100050.20;;;
79495;BMP180;68951;53.130;18.104;2024-02-26T01:50:20;100054.80;;;
79495;BMP180;68951;53.130;18.104;2024-02-26T01:52:50;100057.20;;;
79495;BMP180;68951;53.130;18.104;2024-02-26T01:55:18;100056.80;;;
79495;BMP180;68951;53.130;18.104;2024-02-26T01:57:48;100055.80;;;
79495;BMP180;68951;53.130;18.104;2024-02-26T02:00:17;100053.20;;;
79495;BMP180;68951;53.130;18.104;2024-02-26T02:02:44;100057.20;;;
79495;BMP180;68951;53.130;18.104;2024-02-26T02:05:15;100057.80;;;
79495;BMP180;68951;53.130;18.104;2024-02-26T02:07:44;100062.80;;;
79495;BMP180;68951;53.130;18.104;2024-02-26T02:10:11;100060.20;;;
79495;BMP180;68951;53.130;18.104;2024-02-26T02:12:38;100060.60;;;
79495;BMP180;68951;53.130;18.104;2024-02-26T02:15:07;100061.40;;;
79495;BMP180;68951;53.130;18.104;2024-02-26T02:17:34;100065.60;;;
79495;BMP180;68951;53.130;18.104;2024-02-26T02:20:01;100060.80;;;
79495;BMP180;68951;53.130;18.104;2024-02-26T02:22:28;100062.00;;;
79495;BMP180;68951;53.130;18.104;2024-02-26T02:24:55;100058.00;;;
79495;BMP180;68951;53.130;18.104;2024-02-26T02:27:22;100053.00;;;
79495;BMP180;68951;53.130;18.104;2024-02-26T02:29:48;100052.20;;;
79495;BMP180;68951;53.130;18.104;2024-02-26T02:32:17;100054.40;;;
79495;BMP180;68951;53.130;18.104;2024-02-26T02:34:45;100050.20;;;
79495;BMP180;68951;53.130;18.104;2024-02-26T02:37:12;100046.00;;;
79495;BMP180;68951;53.130;18.104;2024-02-26T02:39:39;100048.60;;;
79495;BMP180;68951;53.130;18.104;2024-02-26T02:42:06;100051.40;;;
79495;BMP180;68951;53.130;18.104;2024-02-26T02:44:32;100051.80;;;
79495;BMP180;68951;53.130;18.104;2024-02-26T02:46:59;100053.80;;;
79495;BMP180;68951;53.130;18.104;2024-02-26T02:49:26;100055.60;;;
79495;BMP180;68951;53.130;18.104;2024-02-26T02:51:52;100058.00;;;
79495;BMP180;68951;53.130;18.104;2024-02-26T02:54:20;100060.20;;;
79495;BMP180;68951;53.130;18.104;2024-02-26T02:56:47;100058.40;;;
79495;BMP180;68951;53.130;18.104;2024-02-26T02:59:14;100055.20;;;
79495;BMP180;68951;53.130;18.104;2024-02-26T03:01:41;100059.80;;;
79495;BMP180;68951;53.130;18.104;2024-02-26T03:04:07;100065.80;;;
79495;BMP180;68951;53.130;18.104;2024-02-26T03:06:34;100069.20;;;
79495;BMP180;68951;53.130;18.104;2024-02-26T03:09:01;100065.60;;;
79495;BMP180;68951;53.130;18.104;2024-02-26T03:11:28;100070.40;;;
79495;BMP180;68951;53.130;18.104;2024-02-26T03:13:55;100065.40;;;
79495;BMP180;68951;53.130;18.104;2024-02-26T03:16:22;100059.80;;;
79495;BMP180;68951;53.130;18.104;2024-02-26T03:18:49;100060.60;;;
79495;BMP180;68951;53.130;18.104;2024-02-26T03:21:15;100058.60;;;
79495;BMP180;68951;53.130;18.104;2024-02-26T03:23:42;100056.80;;;
79495;BMP180;68951;53.130;18.104;2024-02-26T03:26:09;100054.20;;;
79495;BMP180;68951;53.130;18.104;2024-02-26T03:28:40;100052.20;;;
79495;BMP180;68951;53.130;18.104;2024-02-26T03:31:07;100055.20;;;
79495;BMP180;68951;53.130;18.104;2024-02-26T03:33:34;100055.60;;;
79495;BMP180;68951;53.130;18.104;2024-02-26T03:36:01;100055.80;;;
79495;BMP180;68951;53.130;18.104;2024-02-26T03:38:29;100056.20;;;
79495;BMP180;68951;53.130;18.104;2024-02-26T03:40:56;100059.40;;;
79495;BMP180;68951;53.130;18.104;2024-02-26T03:43:23;100057.00;;;
79495;BMP180;68951;53.130;18.104;2024-02-26T03:45:50;100058.80;;;
79495;BMP180;68951;53.130;18.104;2024-02-26T03:48:17;100061.60;;;
79495;BMP180;68951;53.130;18.104;2024-02-26T03:50:44;100065.60;;;
79495;BMP180;68951;53.130;18.104;2024-02-26T03:53:10;100059.20;;;
79495;BMP180;68951;53.130;18.104;2024-02-26T03:55:39;100056.80;;;
79495;BMP180;68951;53.130;18.104;2024-02-26T03:58:08;100063.60;;;
79495;BMP180;68951;53.130;18.104;2024-02-26T04:00:36;100067.80;;;
79495;BMP180;68951;53.130;18.104;2024-02-26T04:03:03;100066.00;;;
79495;BMP180;68951;53.130;18.104;2024-02-26T04:05:30;100067.00;;;
79495;BMP180;68951;53.130;18.104;2024-02-26T04:07:57;100065.80;;;
79495;BMP180;68951;53.130;18.104;2024-02-26T04:10:24;100064.00;;;
79495;BMP180;68951;53.130;18.104;2024-02-26T04:12:51;100063.80;;;
79495;BMP180;68951;53.130;18.104;2024-02-26T04:15:17;100065.20;;;
79495;BMP180;68951;53.130;18.104;2024-02-26T04:17:44;100064.60;;;
79495;BMP180;68951;53.130;18.104;2024-02-26T04:20:15;100064.20;;;
79495;BMP180;68951;53.130;18.104;2024-02-26T04:22:44;100059.80;;;
79495;BMP180;68951;53.130;18.104;2024-02-26T04:25:11;100054.40;;;
79495;BMP180;68951;53.130;18.104;2024-02-26T04:27:38;100059.80;;;
79495;BMP180;68951;53.130;18.104;2024-02-26T04:30:06;100061.00;;;
79495;BMP180;68951;53.130;18.104;2024-02-26T04:32:34;100068.20;;;
79495;BMP180;68951;53.130;18.104;2024-02-26T04:35:02;100067.60;;;
79495;BMP180;68951;53.130;18.104;2024-02-26T04:37:29;100072.40;;;
79495;BMP180;68951;53.130;18.104;2024-02-26T04:39:58;100068.00;;;
79495;BMP180;68951;53.130;18.104;2024-02-26T04:42:27;100068.80;;;
79495;BMP180;68951;53.130;18.104;2024-02-26T04:44:54;100070.20;;;
79495;BMP180;68951;53.130;18.104;2024-02-26T04:47:22;100075.20;;;
79495;BMP180;68951;53.130;18.104;2024-02-26T04:49:51;100073.40;;;
79495;BMP180;68951;53.130;18.104;2024-02-26T04:52:19;100071.00;;;
79495;BMP180;68951;53.130;18.104;2024-02-26T04:54:45;100072.40;;;
79495;BMP180;68951;53.130;18.104;2024-02-26T04:57:12;100074.20;;;
79495;BMP180;68951;53.130;18.104;2024-02-26T04:59:39;100078.00;;;
79495;BMP180;68951;53.130;18.104;2024-02-26T05:02:07;100073.80;;;
79495;BMP180;68951;53.130;18.104;2024-02-26T05:04:36;100077.80;;;
79495;BMP180;68951;53.130;18.104;2024-02-26T05:07:03;100084.40;;;
79495;BMP180;68951;53.130;18.104;2024-02-26T05:09:30;100084.40;;;
79495;BMP180;68951;53.130;18.104;2024-02-26T05:11:56;100089.80;;;
79495;BMP180;68951;53.130;18.104;2024-02-26T05:14:23;100090.20;;;
79495;BMP180;68951;53.130;18.104;2024-02-26T05:16:50;100093.60;;;
79495;BMP180;68951;53.130;18.104;2024-02-26T05:19:17;100104.20;;;
79495;BMP180;68951;53.130;18.104;2024-02-26T05:21:44;100105.40;;;
79495;BMP180;68951;53.130;18.104;2024-02-26T05:24:10;100115.00;;;
79495;BMP180;68951;53.130;18.104;2024-02-26T05:26:37;100109.40;;;
79495;BMP180;68951;53.130;18.104;2024-02-26T05:29:04;100117.80;;;
79495;BMP180;68951;53.130;18.104;2024-02-26T05:31:31;100116.40;;;
79495;BMP180;68951;53.130;18.104;2024-02-26T05:33:58;100119.40;;;
79495;BMP180;68951;53.130;18.104;2024-02-26T05:36:25;100119.40;;;
79495;BMP180;68951;53.130;18.104;2024-02-26T05:38:52;100121.00;;;
79495;BMP180;68951;53.130;18.104;2024-02-26T05:41:19;100119.80;;;
79495;BMP180;68951;53.130;18.104;2024-02-26T05:43:53;100122.40;;;
79495;BMP180;68951;53.130;18.104;2024-02-26T05:46:21;100121.20;;;
79495;BMP180;68951;53.130;18.104;2024-02-26T05:48:51;100127.20;;;
79495;BMP180;68951;53.130;18.104;2024-02-26T05:51:18;100125.00;;;
79495;BMP180;68951;53.130;18.104;2024-02-26T05:53:45;100130.80;;;
79495;BMP180;68951;53.130;18.104;2024-02-26T05:56:13;100138.80;;;
79495;BMP180;68951;53.130;18.104;2024-02-26T05:58:40;100140.80;;;
79495;BMP180;68951;53.130;18.104;2024-02-26T06:01:07;100141.60;;;
79495;BMP180;68951;53.130;18.104;2024-02-26T06:03:34;100144.80;;;
79495;BMP180;68951;53.130;18.104;2024-02-26T06:06:00;100147.60;;;
79495;BMP180;68951;53.130;18.104;2024-02-26T06:08:28;100139.60;;;
79495;BMP180;68951;53.130;18.104;2024-02-26T06:10:55;100138.60;;;
79495;BMP180;68951;53.130;18.104;2024-02-26T06:13:22;100143.00;;;
79495;BMP180;68951;53.130;18.104;2024-02-26T06:15:49;100141.20;;;
79495;BMP180;68951;53.130;18.104;2024-02-26T06:18:15;100144.80;;;
79495;BMP180;68951;53.130;18.104;2024-02-26T06:20:42;100144.80;;;
79495;BMP180;68951;53.130;18.104;2024-02-26T06:23:09;100143.80;;;
79495;BMP180;68951;53.130;18.104;2024-02-26T06:25:36;100147.40;;;
79495;BMP180;68951;53.130;18.104;2024-02-26T06:28:03;100153.00;;;
79495;BMP180;68951;53.130;18.104;2024-02-26T06:30:31;100152.60;;;
79495;BMP180;68951;53.130;18.104;2024-02-26T06:32:58;100156.20;;;
79495;BMP180;68951;53.130;18.104;2024-02-26T06:35:24;100159.00;;;
79495;BMP180;68951;53.130;18.104;2024-02-26T06:37:51;100156.60;;;
79495;BMP180;68951;53.130;18.104;2024-02-26T06:40:19;100162.40;;;
79495;BMP180;68951;53.130;18.104;2024-02-26T06:42:46;100166.60;;;
79495;BMP180;68951;53.130;18.104;2024-02-26T06:45:13;100166.60;;;
79495;BMP180;68951;53.130;18.104;2024-02-26T06:47:40;100168.80;;;
79495;BMP180;68951;53.130;18.104;2024-02-26T06:50:08;100168.40;;;
79495;BMP180;68951;53.130;18.104;2024-02-26T06:52:35;100168.00;;;
79495;BMP180;68951;53.130;18.104;2024-02-26T06:55:02;100166.00;;;
79495;BMP180;68951;53.130;18.104;2024-02-26T06:57:29;100166.40;;;
79495;BMP180;68951;53.130;18.104;2024-02-26T06:59:56;100166.00;;;
79495;BMP180;68951;53.130;18.104;2024-02-26T07:02:25;100166.20;;;
79495;BMP180;68951;53.130;18.104;2024-02-26T07:04:52;100167.40;;;
79495;BMP180;68951;53.130;18.104;2024-02-26T07:07:18;100169.20;;;
79495;BMP180;68951;53.130;18.104;2024-02-26T07:09:45;100177.20;;;
79495;BMP180;68951;53.130;18.104;2024-02-26T07:12:12;100176.40;;;
79495;BMP180;68951;53.130;18.104;2024-02-26T07:14:39;100172.40;;;
79495;BMP180;68951;53.130;18.104;2024-02-26T07:17:05;100173.60;;;
79495;BMP180;68951;53.130;18.104;2024-02-26T07:19:32;100179.20;;;
79495;BMP180;68951;53.130;18.104;2024-02-26T07:21:59;100178.40;;;
79495;BMP180;68951;53.130;18.104;2024-02-26T07:24:31;100184.60;;;
79495;BMP180;68951;53.130;18.104;2024-02-26T07:26:58;100183.00;;;
79495;BMP180;68951;53.130;18.104;2024-02-26T07:29:25;100185.00;;;
79495;BMP180;68951;53.130;18.104;2024-02-26T07:31:51;100186.60;;;
79495;BMP180;68951;53.130;18.104;2024-02-26T07:34:18;100188.80;;;
79495;BMP180;68951;53.130;18.104;2024-02-26T07:36:45;100191.60;;;
79495;BMP180;68951;53.130;18.104;2024-02-26T07:39:12;100197.60;;;
79495;BMP180;68951;53.130;18.104;2024-02-26T07:41:39;100193.20;;;
79495;BMP180;68951;53.130;18.104;2024-02-26T07:44:05;100196.80;;;
79495;BMP180;68951;53.130;18.104;2024-02-26T07:46:32;100206.20;;;
79495;BMP180;68951;53.130;18.104;2024-02-26T07:48:59;100204.40;;;
79495;BMP180;68951;53.130;18.104;2024-02-26T07:51:26;100205.60;;;
79495;BMP180;68951;53.130;18.104;2024-02-26T07:53:52;100210.20;;;
79495;BMP180;68951;53.130;18.104;2024-02-26T07:56:19;100214.80;;;
79495;BMP180;68951;53.130;18.104;2024-02-26T07:58:46;100211.00;;;
79495;BMP180;68951;53.130;18.104;2024-02-26T08:01:13;100212.80;;;
79495;BMP180;68951;53.130;18.104;2024-02-26T08:03:41;100210.20;;;
79495;BMP180;68951;53.130;18.104;2024-02-26T08:06:08;100214.40;;;
79495;BMP180;68951;53.130;18.104;2024-02-26T08:08:35;100217.80;;;
79495;BMP180;68951;53.130;18.104;2024-02-26T08:11:02;100222.60;;;
79495;BMP180;68951;53.130;18.104;2024-02-26T08:13:29;100220.60;;;
79495;BMP180;68951;53.130;18.104;2024-02-26T08:15:56;100223.40;;;
79495;BMP180;68951;53.130;18.104;2024-02-26T08:18:22;100221.00;;;
79495;BMP180;68951;53.130;18.104;2024-02-26T08:20:49;100230.00;;;
79495;BMP180;68951;53.130;18.104;2024-02-26T08:23:17;100233.60;;;
79495;BMP180;68951;53.130;18.104;2024-02-26T08:25:44;100230.80;;;
79495;BMP180;68951;53.130;18.104;2024-02-26T08:28:11;100230.60;;;
79495;BMP180;68951;53.130;18.104;2024-02-26T08:30:39;100227.60;;;
79495;BMP180;68951;53.130;18.104;2024-02-26T08:33:06;100228.00;;;
79495;BMP180;68951;53.130;18.104;2024-02-26T08:35:33;100224.80;;;
79495;BMP180;68951;53.130;18.104;2024-02-26T08:38:00;100225.00;;;
79495;BMP180;68951;53.130;18.104;2024-02-26T08:40:27;100226.40;;;
79495;BMP180;68951;53.130;18.104;2024-02-26T08:42:54;100224.20;;;
79495;BMP180;68951;53.130;18.104;2024-02-26T08:45:21;100238.40;;;
79495;BMP180;68951;53.130;18.104;2024-02-26T08:47:48;100238.20;;;
79495;BMP180;68951;53.130;18.104;2024-02-26T08:50:15;100234.20;;;
79495;BMP180;68951;53.130;18.104;2024-02-26T08:52:42;100245.00;;;
79495;BMP180;68951;53.130;18.104;2024-02-26T08:55:09;100248.00;;;
79495;BMP180;68951;53.130;18.104;2024-02-26T08:57:36;100244.20;;;
79495;BMP180;68951;53.130;18.104;2024-02-26T09:00:03;100251.20;;;
79495;BMP180;68951;53.130;18.104;2024-02-26T09:02:30;100245.20;;;
79495;BMP180;68951;53.130;18.104;2024-02-26T09:04:57;100249.60;;;
79495;BMP180;68951;53.130;18.104;2024-02-26T09:07:23;100253.20;;;
79495;BMP180;68951;53.130;18.104;2024-02-26T09:09:50;100252.80;;;
79495;BMP180;68951;53.130;18.104;2024-02-26T09:12:17;100252.60;;;
79495;BMP180;68951;53.130;18.104;2024-02-26T09:14:44;100254.40;;;
79495;BMP180;68951;53.130;18.104;2024-02-26T09:17:11;100255.60;;;
79495;BMP180;68951;53.130;18.104;2024-02-26T09:19:38;100260.00;;;
79495;BMP180;68951;53.130;18.104;2024-02-26T09:22:05;100261.20;;;
79495;BMP180;68951;53.130;18.104;2024-02-26T09:24:32;100265.00;;;
79495;BMP180;68951;53.130;18.104;2024-02-26T09:26:59;100264.20;;;
79495;BMP180;68951;53.130;18.104;2024-02-26T09:29:26;100266.00;;;
79495;BMP180;68951;53.130;18.104;2024-02-26T09:31:53;100264.60;;;
79495;BMP180;68951;53.130;18.104;2024-02-26T09:34:20;100268.80;;;
79495;BMP180;68951;53.130;18.104;2024-02-26T09:36:47;100264.20;;;
79495;BMP180;68951;53.130;18.104;2024-02-26T09:39:13;100264.00;;;
79495;BMP180;68951;53.130;18.104;2024-02-26T09:41:41;100264.00;;;
79495;BMP180;68951;53.130;18.104;2024-02-26T09:44:09;100269.20;;;
79495;BMP180;68951;53.130;18.104;2024-02-26T09:46:36;100268.00;;;
79495;BMP180;68951;53.130;18.104;2024-02-26T09:49:04;100272.60;;;
79495;BMP180;68951;53.130;18.104;2024-02-26T09:51:32;100275.40;;;
79495;BMP180;68951;53.130;18.104;2024-02-26T09:54:00;100284.20;;;
79495;BMP180;68951;53.130;18.104;2024-02-26T09:56:29;100282.60;;;
79495;BMP180;68951;53.130;18.104;2024-02-26T09:58:59;100287.20;;;
79495;BMP180;68951;53.130;18.104;2024-02-26T10:01:26;100286.80;;;
79495;BMP180;68951;53.130;18.104;2024-02-26T10:03:57;100287.80;;;
79495;BMP180;68951;53.130;18.104;2024-02-26T10:06:26;100285.00;;;
79495;BMP180;68951;53.130;18.104;2024-02-26T10:08:56;100288.40;;;
79495;BMP180;68951;53.130;18.104;2024-02-26T10:11:27;100293.60;;;
79495;BMP180;68951;53.130;18.104;2024-02-26T10:13:54;100291.40;;;
79495;BMP180;68951;53.130;18.104;2024-02-26T10:16:21;100294.20;;;
79495;BMP180;68951;53.130;18.104;2024-02-26T10:18:51;100289.60;;;
79495;BMP180;68951;53.130;18.104;2024-02-26T10:21:22;100289.40;;;
79495;BMP180;68951;53.130;18.104;2024-02-26T10:23:49;100290.40;;;
79495;BMP180;68951;53.130;18.104;2024-02-26T10:26:20;100288.40;;;
79495;BMP180;68951;53.130;18.104;2024-02-26T10:28:46;100292.60;;;
79495;BMP180;68951;53.130;18.104;2024-02-26T10:31:14;100296.60;;;
79495;BMP180;68951;53.130;18.104;2024-02-26T10:33:43;100290.00;;;
79495;BMP180;68951;53.130;18.104;2024-02-26T10:36:10;100287.40;;;
79495;BMP180;68951;53.130;18.104;2024-02-26T10:38:38;100288.40;;;
79495;BMP180;68951;53.130;18.104;2024-02-26T10:41:07;100285.80;;;
79495;BMP180;68951;53.130;18.104;2024-02-26T10:43:34;100289.60;;;
79495;BMP180;68951;53.130;18.104;2024-02-26T10:46:01;100293.40;;;
79495;BMP180;68951;53.130;18.104;2024-02-26T10:48:28;100294.00;;;
79495;BMP180;68951;53.130;18.104;2024-02-26T10:50:55;100295.40;;;
79495;BMP180;68951;53.130;18.104;2024-02-26T10:53:29;100300.40;;;
79495;BMP180;68951;53.130;18.104;2024-02-26T10:56:03;100301.80;;;
79495;BMP180;68951;53.130;18.104;2024-02-26T10:58:32;100303.80;;;
79495;BMP180;68951;53.130;18.104;2024-02-26T11:00:59;100308.60;;;
79495;BMP180;68951;53.130;18.104;2024-02-26T11:03:28;100313.40;;;
79495;BMP180;68951;53.130;18.104;2024-02-26T11:06:00;100302.00;;;
79495;BMP180;68951;53.130;18.104;2024-02-26T11:08:28;100297.60;;;
79495;BMP180;68951;53.130;18.104;2024-02-26T11:10:57;100298.60;;;
79495;BMP180;68951;53.130;18.104;2024-02-26T11:13:28;100298.20;;;
79495;BMP180;68951;53.130;18.104;2024-02-26T11:15:58;100295.80;;;
79495;BMP180;68951;53.130;18.104;2024-02-26T11:18:27;100295.80;;;
79495;BMP180;68951;53.130;18.104;2024-02-26T11:20:54;100295.20;;;
79495;BMP180;68951;53.130;18.104;2024-02-26T11:23:24;100293.20;;;
79495;BMP180;68951;53.130;18.104;2024-02-26T11:25:54;100298.60;;;
79495;BMP180;68951;53.130;18.104;2024-02-26T11:28:24;100304.00;;;
79495;BMP180;68951;53.130;18.104;2024-02-26T11:30:52;100298.20;;;
79495;BMP180;68951;53.130;18.104;2024-02-26T11:33:20;100296.00;;;
79495;BMP180;68951;53.130;18.104;2024-02-26T11:35:47;100295.40;;;
79495;BMP180;68951;53.130;18.104;2024-02-26T11:38:22;100297.60;;;
79495;BMP180;68951;53.130;18.104;2024-02-26T11:40:50;100305.20;;;
79495;BMP180;68951;53.130;18.104;2024-02-26T11:43:17;100307.00;;;
79495;BMP180;68951;53.130;18.104;2024-02-26T11:45:54;100310.20;;;
79495;BMP180;68951;53.130;18.104;2024-02-26T11:48:25;100313.00;;;
79495;BMP180;68951;53.130;18.104;2024-02-26T11:50:54;100313.40;;;
79495;BMP180;68951;53.130;18.104;2024-02-26T11:53:30;100312.40;;;
79495;BMP180;68951;53.130;18.104;2024-02-26T11:56:20;100312.20;;;
79495;BMP180;68951;53.130;18.104;2024-02-26T11:58:57;100318.00;;;
79495;BMP180;68951;53.130;18.104;2024-02-26T12:01:43;100320.40;;;
79495;BMP180;68951;53.130;18.104;2024-02-26T12:04:21;100313.00;;;
79495;BMP180;68951;53.130;18.104;2024-02-26T12:07:01;100316.20;;;
79495;BMP180;68951;53.130;18.104;2024-02-26T12:09:42;100320.00;;;
79495;BMP180;68951;53.130;18.104;2024-02-26T12:12:13;100320.20;;;
79495;BMP180;68951;53.130;18.104;2024-02-26T12:14:56;100315.80;;;
79495;BMP180;68951;53.130;18.104;2024-02-26T12:17:25;100311.20;;;
79495;BMP180;68951;53.130;18.104;2024-02-26T12:19:52;100318.60;;;
79495;BMP180;68951;53.130;18.104;2024-02-26T12:22:20;100315.20;;;
79495;BMP180;68951;53.130;18.104;2024-02-26T12:24:47;100315.20;;;
79495;BMP180;68951;53.130;18.104;2024-02-26T12:27:14;100311.60;;;
79495;BMP180;68951;53.130;18.104;2024-02-26T12:29:41;100312.80;;;
79495;BMP180;68951;53.130;18.104;2024-02-26T12:32:08;100313.20;;;
79495;BMP180;68951;53.130;18.104;2024-02-26T12:34:35;100312.80;;;
79495;BMP180;68951;53.130;18.104;2024-02-26T12:37:02;100314.60;;;
79495;BMP180;68951;53.130;18.104;2024-02-26T12:39:30;100307.60;;;
79495;BMP180;68951;53.130;18.104;2024-02-26T12:41:58;100309.20;;;
79495;BMP180;68951;53.130;18.104;2024-02-26T12:44:26;100303.60;;;
79495;BMP180;68951;53.130;18.104;2024-02-26T12:47:11;100298.80;;;
79495;BMP180;68951;53.130;18.104;2024-02-26T12:49:43;100296.20;;;
79495;BMP180;68951;53.130;18.104;2024-02-26T12:52:13;100294.00;;;
79495;BMP180;68951;53.130;18.104;2024-02-26T12:54:40;100294.60;;;
79495;BMP180;68951;53.130;18.104;2024-02-26T12:57:09;100293.20;;;
79495;BMP180;68951;53.130;18.104;2024-02-26T12:59:37;100294.80;;;
79495;BMP180;68951;53.130;18.104;2024-02-26T13:02:04;100291.40;;;
79495;BMP180;68951;53.130;18.104;2024-02-26T13:04:31;100291.80;;;
79495;BMP180;68951;53.130;18.104;2024-02-26T13:06:58;100289.80;;;
79495;BMP180;68951;53.130;18.104;2024-02-26T13:09:34;100289.40;;;
79495;BMP180;68951;53.130;18.104;2024-02-26T13:12:05;100295.20;;;
79495;BMP180;68951;53.130;18.104;2024-02-26T13:14:33;100296.80;;;
79495;BMP180;68951;53.130;18.104;2024-02-26T13:17:01;100297.60;;;
79495;BMP180;68951;53.130;18.104;2024-02-26T13:19:28;100294.60;;;
79495;BMP180;68951;53.130;18.104;2024-02-26T13:21:55;100292.40;;;
79495;BMP180;68951;53.130;18.104;2024-02-26T13:24:22;100291.20;;;
79495;BMP180;68951;53.130;18.104;2024-02-26T13:26:55;100293.40;;;
79495;BMP180;68951;53.130;18.104;2024-02-26T13:29:22;100287.80;;;
79495;BMP180;68951;53.130;18.104;2024-02-26T13:31:55;100288.60;;;
79495;BMP180;68951;53.130;18.104;2024-02-26T13:34:27;100291.00;;;
79495;BMP180;68951;53.130;18.104;2024-02-26T13:36:54;100294.20;;;
79495;BMP180;68951;53.130;18.104;2024-02-26T13:39:25;100293.20;;;
79495;BMP180;68951;53.130;18.104;2024-02-26T13:41:53;100296.00;;;
79495;BMP180;68951;53.130;18.104;2024-02-26T13:44:21;100294.00;;;
79495;BMP180;68951;53.130;18.104;2024-02-26T13:46:48;100298.60;;;
79495;BMP180;68951;53.130;18.104;2024-02-26T13:49:16;100304.00;;;
79495;BMP180;68951;53.130;18.104;2024-02-26T13:51:43;100303.60;;;
79495;BMP180;68951;53.130;18.104;2024-02-26T13:54:10;100301.00;;;
79495;BMP180;68951;53.130;18.104;2024-02-26T13:56:37;100296.60;;;
79495;BMP180;68951;53.130;18.104;2024-02-26T13:59:04;100299.60;;;
79495;BMP180;68951;53.130;18.104;2024-02-26T14:01:31;100302.60;;;
79495;BMP180;68951;53.130;18.104;2024-02-26T14:04:00;100297.60;;;
79495;BMP180;68951;53.130;18.104;2024-02-26T14:06:28;100297.20;;;
79495;BMP180;68951;53.130;18.104;2024-02-26T14:08:56;100297.00;;;
79495;BMP180;68951;53.130;18.104;2024-02-26T14:11:22;100299.40;;;
79495;BMP180;68951;53.130;18.104;2024-02-26T14:13:49;100301.00;;;
79495;BMP180;68951;53.130;18.104;2024-02-26T14:16:16;100298.20;;;
79495;BMP180;68951;53.130;18.104;2024-02-26T14:18:43;100299.20;;;
79495;BMP180;68951;53.130;18.104;2024-02-26T14:21:11;100298.20;;;
79495;BMP180;68951;53.130;18.104;2024-02-26T14:23:39;100296.60;;;
79495;BMP180;68951;53.130;18.104;2024-02-26T14:26:06;100294.80;;;
79495;BMP180;68951;53.130;18.104;2024-02-26T14:28:33;100292.00;;;
79495;BMP180;68951;53.130;18.104;2024-02-26T14:31:00;100290.00;;;
79495;BMP180;68951;53.130;18.104;2024-02-26T14:33:27;100289.20;;;
79495;BMP180;68951;53.130;18.104;2024-02-26T14:35:54;100295.40;;;
79495;BMP180;68951;53.130;18.104;2024-02-26T14:38:21;100295.20;;;
79495;BMP180;68951;53.130;18.104;2024-02-26T14:40:49;100293.20;;;
79495;BMP180;68951;53.130;18.104;2024-02-26T14:43:16;100298.20;;;
79495;BMP180;68951;53.130;18.104;2024-02-26T14:45:43;100295.80;;;
79495;BMP180;68951;53.130;18.104;2024-02-26T14:48:10;100294.20;;;
79495;BMP180;68951;53.130;18.104;2024-02-26T14:50:37;100295.80;;;